sensor_id;sensor_type;location;lat;lon;timestamp;pressure;altitude;pressure_sealevel;temperature;humidity
80693;BME280;70055;39.436;-77.514;2024-03-22T00:00:32;100063.43;;;0.04;30.47
80693;BME280;70055;39.436;-77.514;2024-03-22T00:03:00;100076.45;;;2.12;24.42
80693;BME280;70055;39.436;-77.514;2024-03-22T00:05:29;100091.76;;;1.99;25.06
80693;BME280;70055;39.436;-77.514;2024-03-22T00:07:57;100099.19;;;1.76;24.00
80693;BME280;70055;39.436;-77.514;2024-03-22T00:10:26;100097.07;;;2.98;21.66
80693;BME280;70055;39.436;-77.514;2024-03-22T00:12:55;100100.27;;;3.85;20.49
80693;BME280;70055;39.436;-77.514;2024-03-22T00:15:24;100107.46;;;3.05;20.46
80693;BME280;70055;39.436;-77.514;2024-03-22T00:17:54;100107.63;;;4.53;20.32
80693;BME280;70055;39.436;-77.514;2024-03-22T00:20:26;100117.94;;;4.44;20.48
80693;BME280;70055;39.436;-77.514;2024-03-22T00:22:56;100118.40;;;4.15;19.98
80693;BME280;70055;39.436;-77.514;2024-03-22T00:25:24;100128.00;;;4.73;19.15
80693;BME280;70055;39.436;-77.514;2024-03-22T00:27:54;100130.23;;;5.28;19.21
80693;BME280;70055;39.436;-77.514;2024-03-22T00:30:24;100136.02;;;5.05;18.19
80693;BME280;70055;39.436;-77.514;2024-03-22T00:32:52;100144.04;;;5.31;18.92
80693;BME280;70055;39.436;-77.514;2024-03-22T00:35:20;100153.90;;;5.28;18.66
80693;BME280;70055;39.436;-77.514;2024-03-22T00:37:48;100157.33;;;4.89;19.55
80693;BME280;70055;39.436;-77.514;2024-03-22T00:40:17;100165.06;;;3.86;20.88
80693;BME280;70055;39.436;-77.514;2024-03-22T00:42:45;100163.29;;;5.61;19.06
80693;BME280;70055;39.436;-77.514;2024-03-22T00:45:15;100170.21;;;4.42;21.53
80693;BME280;70055;39.436;-77.514;2024-03-22T00:47:43;100176.26;;;3.91;20.87
80693;BME280;70055;39.436;-77.514;2024-03-22T00:50:11;100182.48;;;2.73;22.17
80693;BME280;70055;39.436;-77.514;2024-03-22T00:52:40;100182.19;;;3.86;21.28
80693;BME280;70055;39.436;-77.514;2024-03-22T00:55:08;100189.01;;;2.86;22.85
80693;BME280;70055;39.436;-77.514;2024-03-22T00:57:36;100197.02;;;3.25;23.77
80693;BME280;70055;39.436;-77.514;2024-03-22T01:00:05;100202.90;;;3.89;21.93
80693;BME280;70055;39.436;-77.514;2024-03-22T01:02:34;100211.44;;;3.47;23.92
80693;BME280;70055;39.436;-77.514;2024-03-22T01:05:03;100218.25;;;3.01;24.56
80693;BME280;70055;39.436;-77.514;2024-03-22T01:07:31;100225.64;;;2.12;27.74
80693;BME280;70055;39.436;-77.514;2024-03-22T01:10:00;100234.32;;;-1.50;31.66
80693;BME280;70055;39.436;-77.514;2024-03-22T01:12:28;100241.47;;;-0.64;31.05
80693;BME280;70055;39.436;-77.514;2024-03-22T01:14:57;100246.52;;;1.86;27.82
80693;BME280;70055;39.436;-77.514;2024-03-22T01:17:25;100253.97;;;2.16;25.76
80693;BME280;70055;39.436;-77.514;2024-03-22T01:19:55;100252.64;;;2.20;25.37
80693;BME280;70055;39.436;-77.514;2024-03-22T01:22:24;100259.54;;;1.14;25.05
80693;BME280;70055;39.436;-77.514;2024-03-22T01:24:51;100257.31;;;0.50;25.20
80693;BME280;70055;39.436;-77.514;2024-03-22T01:27:20;100261.14;;;1.61;24.56
80693;BME280;70055;39.436;-77.514;2024-03-22T01:29:50;100263.56;;;2.27;24.30
80693;BME280;70055;39.436;-77.514;2024-03-22T01:32:18;100262.78;;;2.53;25.16
80693;BME280;70055;39.436;-77.514;2024-03-22T01:34:46;100270.70;;;1.52;25.46
80693;BME280;70055;39.436;-77.514;2024-03-22T01:37:14;100272.02;;;1.89;25.55
80693;BME280;70055;39.436;-77.514;2024-03-22T01:39:42;100268.77;;;2.85;24.32
80693;BME280;70055;39.436;-77.514;2024-03-22T01:42:10;100266.68;;;2.98;24.26
80693;BME280;70055;39.436;-77.514;2024-03-22T01:44:38;100270.08;;;2.22;24.57
80693;BME280;70055;39.436;-77.514;2024-03-22T01:47:06;100274.19;;;3.09;22.96
80693;BME280;70055;39.436;-77.514;2024-03-22T01:49:35;100278.97;;;3.73;22.03
80693;BME280;70055;39.436;-77.514;2024-03-22T01:52:04;100274.55;;;3.74;21.79
80693;BME280;70055;39.436;-77.514;2024-03-22T01:54:32;100277.82;;;3.47;21.26
80693;BME280;70055;39.436;-77.514;2024-03-22T01:57:01;100286.05;;;3.62;21.39
80693;BME280;70055;39.436;-77.514;2024-03-22T01:59:29;100289.72;;;3.34;22.43
80693;BME280;70055;39.436;-77.514;2024-03-22T02:01:58;100286.95;;;3.41;22.96
80693;BME280;70055;39.436;-77.514;2024-03-22T02:04:26;100289.56;;;3.77;24.07
80693;BME280;70055;39.436;-77.514;2024-03-22T02:06:55;100297.21;;;2.03;24.96
80693;BME280;70055;39.436;-77.514;2024-03-22T02:09:24;100293.20;;;3.10;24.29
80693;BME280;70055;39.436;-77.514;2024-03-22T02:11:53;100298.65;;;2.45;23.83
80693;BME280;70055;39.436;-77.514;2024-03-22T02:14:21;100305.53;;;2.58;25.25
80693;BME280;70055;39.436;-77.514;2024-03-22T02:16:49;100311.78;;;1.98;25.40
80693;BME280;70055;39.436;-77.514;2024-03-22T02:19:18;100310.76;;;2.36;24.38
80693;BME280;70055;39.436;-77.514;2024-03-22T02:21:46;100312.76;;;2.87;23.35
80693;BME280;70055;39.436;-77.514;2024-03-22T02:24:14;100330.02;;;2.32;25.18
80693;BME280;70055;39.436;-77.514;2024-03-22T02:26:42;100331.94;;;2.83;24.47
80693;BME280;70055;39.436;-77.514;2024-03-22T02:29:10;100339.17;;;2.69;24.06
80693;BME280;70055;39.436;-77.514;2024-03-22T02:31:38;100342.50;;;2.28;22.56
80693;BME280;70055;39.436;-77.514;2024-03-22T02:34:07;100346.70;;;2.24;23.58
80693;BME280;70055;39.436;-77.514;2024-03-22T02:36:36;100348.16;;;1.89;25.31
80693;BME280;70055;39.436;-77.514;2024-03-22T02:39:04;100341.15;;;2.42;22.62
80693;BME280;70055;39.436;-77.514;2024-03-22T02:41:32;100342.02;;;1.80;26.16
80693;BME280;70055;39.436;-77.514;2024-03-22T02:44:01;100346.74;;;-0.05;28.85
80693;BME280;70055;39.436;-77.514;2024-03-22T02:46:30;100349.11;;;1.52;26.98
80693;BME280;70055;39.436;-77.514;2024-03-22T02:48:58;100354.64;;;2.31;25.55
80693;BME280;70055;39.436;-77.514;2024-03-22T02:51:26;100363.16;;;2.13;24.90
80693;BME280;70055;39.436;-77.514;2024-03-22T02:53:55;100371.16;;;2.40;24.41
80693;BME280;70055;39.436;-77.514;2024-03-22T02:56:22;100379.34;;;2.24;24.86
80693;BME280;70055;39.436;-77.514;2024-03-22T02:58:51;100382.34;;;2.52;24.48
80693;BME280;70055;39.436;-77.514;2024-03-22T03:01:21;100383.16;;;2.17;24.82
80693;BME280;70055;39.436;-77.514;2024-03-22T03:03:48;100383.51;;;1.90;27.22
80693;BME280;70055;39.436;-77.514;2024-03-22T03:06:16;100380.14;;;1.53;26.70
80693;BME280;70055;39.436;-77.514;2024-03-22T03:08:44;100381.26;;;-0.09;29.28
80693;BME280;70055;39.436;-77.514;2024-03-22T03:11:13;100382.11;;;1.73;26.55
80693;BME280;70055;39.436;-77.514;2024-03-22T03:13:41;100387.49;;;2.06;25.62
80693;BME280;70055;39.436;-77.514;2024-03-22T03:16:09;100385.19;;;2.53;24.46
80693;BME280;70055;39.436;-77.514;2024-03-22T03:18:37;100384.91;;;1.74;24.74
80693;BME280;70055;39.436;-77.514;2024-03-22T03:21:05;100384.40;;;1.13;26.21
80693;BME280;70055;39.436;-77.514;2024-03-22T03:23:33;100387.97;;;0.08;28.13
80693;BME280;70055;39.436;-77.514;2024-03-22T03:26:02;100389.31;;;0.00;29.03
80693;BME280;70055;39.436;-77.514;2024-03-22T03:28:31;100384.97;;;0.94;28.24
80693;BME280;70055;39.436;-77.514;2024-03-22T03:30:59;100394.89;;;0.88;26.97
80693;BME280;70055;39.436;-77.514;2024-03-22T03:33:28;100390.95;;;1.08;25.87
80693;BME280;70055;39.436;-77.514;2024-03-22T03:35:56;100392.87;;;1.73;25.02
80693;BME280;70055;39.436;-77.514;2024-03-22T03:38:24;100401.88;;;1.16;26.53
80693;BME280;70055;39.436;-77.514;2024-03-22T03:40:52;100404.60;;;1.12;26.84
80693;BME280;70055;39.436;-77.514;2024-03-22T03:43:20;100398.74;;;1.24;27.32
80693;BME280;70055;39.436;-77.514;2024-03-22T03:45:49;100396.98;;;0.48;29.53
80693;BME280;70055;39.436;-77.514;2024-03-22T03:48:16;100398.84;;;0.34;29.21
80693;BME280;70055;39.436;-77.514;2024-03-22T03:50:52;100396.81;;;0.88;27.98
80693;BME280;70055;39.436;-77.514;2024-03-22T03:53:20;100394.05;;;1.34;26.79
80693;BME280;70055;39.436;-77.514;2024-03-22T03:55:48;100390.52;;;0.91;27.37
80693;BME280;70055;39.436;-77.514;2024-03-22T03:58:17;100390.02;;;1.20;28.00
80693;BME280;70055;39.436;-77.514;2024-03-22T04:00:44;100399.00;;;0.54;28.07
80693;BME280;70055;39.436;-77.514;2024-03-22T04:03:13;100404.54;;;0.49;27.80
80693;BME280;70055;39.436;-77.514;2024-03-22T04:05:41;100401.25;;;-0.07;27.61
80693;BME280;70055;39.436;-77.514;2024-03-22T04:08:09;100403.56;;;0.92;26.81
80693;BME280;70055;39.436;-77.514;2024-03-22T04:10:37;100408.91;;;0.77;30.92
80693;BME280;70055;39.436;-77.514;2024-03-22T04:13:06;100406.48;;;0.62;29.21
80693;BME280;70055;39.436;-77.514;2024-03-22T04:15:35;100407.81;;;0.37;28.85
80693;BME280;70055;39.436;-77.514;2024-03-22T04:18:04;100411.79;;;1.14;27.63
80693;BME280;70055;39.436;-77.514;2024-03-22T04:20:32;100414.11;;;1.52;25.84
80693;BME280;70055;39.436;-77.514;2024-03-22T04:22:59;100419.88;;;0.04;27.28
80693;BME280;70055;39.436;-77.514;2024-03-22T04:25:27;100415.65;;;0.49;28.17
80693;BME280;70055;39.436;-77.514;2024-03-22T04:27:55;100411.05;;;0.38;27.30
80693;BME280;70055;39.436;-77.514;2024-03-22T04:30:23;100407.26;;;0.66;28.71
80693;BME280;70055;39.436;-77.514;2024-03-22T04:32:51;100404.70;;;-0.83;30.53
80693;BME280;70055;39.436;-77.514;2024-03-22T04:35:18;100404.54;;;-0.78;30.60
80693;BME280;70055;39.436;-77.514;2024-03-22T04:37:46;100404.58;;;0.08;31.00
80693;BME280;70055;39.436;-77.514;2024-03-22T04:40:14;100410.60;;;0.33;30.54
80693;BME280;70055;39.436;-77.514;2024-03-22T04:42:42;100418.17;;;0.31;30.06
80693;BME280;70055;39.436;-77.514;2024-03-22T04:45:11;100421.10;;;0.76;29.56
80693;BME280;70055;39.436;-77.514;2024-03-22T04:47:40;100423.43;;;0.33;29.55
80693;BME280;70055;39.436;-77.514;2024-03-22T04:50:08;100420.43;;;0.39;28.10
80693;BME280;70055;39.436;-77.514;2024-03-22T04:52:36;100424.43;;;0.76;28.31
80693;BME280;70055;39.436;-77.514;2024-03-22T04:55:05;100431.62;;;0.20;29.40
80693;BME280;70055;39.436;-77.514;2024-03-22T04:57:33;100434.86;;;0.97;28.78
80693;BME280;70055;39.436;-77.514;2024-03-22T05:00:02;100436.06;;;0.18;29.12
80693;BME280;70055;39.436;-77.514;2024-03-22T05:02:31;100434.50;;;0.59;30.82
80693;BME280;70055;39.436;-77.514;2024-03-22T05:04:59;100426.48;;;0.39;29.30
80693;BME280;70055;39.436;-77.514;2024-03-22T05:07:27;100427.36;;;-1.10;32.76
80693;BME280;70055;39.436;-77.514;2024-03-22T05:09:55;100422.24;;;-0.10;31.44
80693;BME280;70055;39.436;-77.514;2024-03-22T05:12:23;100428.42;;;0.57;29.84
80693;BME280;70055;39.436;-77.514;2024-03-22T05:14:51;100430.58;;;-0.16;29.64
80693;BME280;70055;39.436;-77.514;2024-03-22T05:17:20;100440.62;;;-1.16;29.99
80693;BME280;70055;39.436;-77.514;2024-03-22T05:19:47;100441.46;;;-1.46;31.18
80693;BME280;70055;39.436;-77.514;2024-03-22T05:22:16;100428.21;;;0.01;29.83
80693;BME280;70055;39.436;-77.514;2024-03-22T05:24:44;100426.18;;;-0.41;28.62
80693;BME280;70055;39.436;-77.514;2024-03-22T05:27:13;100433.41;;;0.34;29.74
80693;BME280;70055;39.436;-77.514;2024-03-22T05:29:41;100433.87;;;0.55;27.11
80693;BME280;70055;39.436;-77.514;2024-03-22T05:32:08;100437.45;;;0.57;29.65
80693;BME280;70055;39.436;-77.514;2024-03-22T05:34:36;100432.87;;;-0.39;28.46
80693;BME280;70055;39.436;-77.514;2024-03-22T05:37:04;100433.17;;;0.12;27.66
80693;BME280;70055;39.436;-77.514;2024-03-22T05:39:32;100429.67;;;0.03;29.70
80693;BME280;70055;39.436;-77.514;2024-03-22T05:42:00;100430.55;;;0.21;26.82
80693;BME280;70055;39.436;-77.514;2024-03-22T05:44:28;100433.05;;;0.07;27.49
80693;BME280;70055;39.436;-77.514;2024-03-22T05:46:56;100436.42;;;0.45;27.72
80693;BME280;70055;39.436;-77.514;2024-03-22T05:49:24;100439.42;;;-0.43;31.51
80693;BME280;70055;39.436;-77.514;2024-03-22T05:51:53;100440.34;;;0.08;30.11
80693;BME280;70055;39.436;-77.514;2024-03-22T05:54:21;100440.49;;;1.21;28.39
80693;BME280;70055;39.436;-77.514;2024-03-22T05:56:49;100441.04;;;0.73;27.90
80693;BME280;70055;39.436;-77.514;2024-03-22T05:59:17;100443.88;;;0.73;26.99
80693;BME280;70055;39.436;-77.514;2024-03-22T06:01:45;100453.08;;;-1.50;32.84
80693;BME280;70055;39.436;-77.514;2024-03-22T06:04:13;100445.58;;;-0.24;31.34
80693;BME280;70055;39.436;-77.514;2024-03-22T06:06:41;100443.04;;;0.07;30.63
80693;BME280;70055;39.436;-77.514;2024-03-22T06:09:10;100442.36;;;-0.00;30.71
80693;BME280;70055;39.436;-77.514;2024-03-22T06:11:38;100440.64;;;-0.44;30.75
80693;BME280;70055;39.436;-77.514;2024-03-22T06:14:06;100447.25;;;-0.24;31.08
80693;BME280;70055;39.436;-77.514;2024-03-22T06:16:33;100449.67;;;-0.71;31.32
80693;BME280;70055;39.436;-77.514;2024-03-22T06:19:01;100450.94;;;-0.39;30.58
80693;BME280;70055;39.436;-77.514;2024-03-22T06:21:29;100445.82;;;-0.30;30.55
80693;BME280;70055;39.436;-77.514;2024-03-22T06:23:57;100442.85;;;0.15;29.87
80693;BME280;70055;39.436;-77.514;2024-03-22T06:26:24;100449.98;;;0.04;29.46
80693;BME280;70055;39.436;-77.514;2024-03-22T06:28:52;100452.57;;;0.13;29.24
80693;BME280;70055;39.436;-77.514;2024-03-22T06:31:20;100457.26;;;-0.02;28.44
80693;BME280;70055;39.436;-77.514;2024-03-22T06:33:49;100461.29;;;0.25;29.79
80693;BME280;70055;39.436;-77.514;2024-03-22T06:36:17;100475.08;;;-0.42;32.11
80693;BME280;70055;39.436;-77.514;2024-03-22T06:38:45;100473.80;;;-0.50;32.05
80693;BME280;70055;39.436;-77.514;2024-03-22T06:41:13;100476.70;;;-0.67;32.92
80693;BME280;70055;39.436;-77.514;2024-03-22T06:43:41;100475.80;;;-1.02;32.17
80693;BME280;70055;39.436;-77.514;2024-03-22T06:46:08;100474.00;;;-0.69;31.64
80693;BME280;70055;39.436;-77.514;2024-03-22T06:48:36;100484.56;;;-1.34;31.33
80693;BME280;70055;39.436;-77.514;2024-03-22T06:51:04;100482.47;;;-0.30;30.48
80693;BME280;70055;39.436;-77.514;2024-03-22T06:53:32;100488.24;;;-0.52;30.59
80693;BME280;70055;39.436;-77.514;2024-03-22T06:56:00;100490.17;;;-1.21;31.32
80693;BME280;70055;39.436;-77.514;2024-03-22T06:58:28;100490.24;;;-2.00;33.78
80693;BME280;70055;39.436;-77.514;2024-03-22T07:00:55;100484.10;;;-0.66;32.22
80693;BME280;70055;39.436;-77.514;2024-03-22T07:03:23;100475.57;;;-0.62;32.12
80693;BME280;70055;39.436;-77.514;2024-03-22T07:05:51;100466.72;;;-0.67;32.91
80693;BME280;70055;39.436;-77.514;2024-03-22T07:08:19;100466.10;;;-0.90;33.55
80693;BME280;70055;39.436;-77.514;2024-03-22T07:10:46;100470.46;;;-0.97;33.36
80693;BME280;70055;39.436;-77.514;2024-03-22T07:13:14;100468.54;;;-0.51;31.82
80693;BME280;70055;39.436;-77.514;2024-03-22T07:15:44;100472.10;;;0.22;30.47
80693;BME280;70055;39.436;-77.514;2024-03-22T07:18:12;100474.13;;;-0.63;30.45
80693;BME280;70055;39.436;-77.514;2024-03-22T07:20:41;100471.28;;;-0.30;31.87
80693;BME280;70055;39.436;-77.514;2024-03-22T07:23:09;100476.46;;;-1.19;31.43
80693;BME280;70055;39.436;-77.514;2024-03-22T07:25:37;100469.12;;;-0.50;30.46
80693;BME280;70055;39.436;-77.514;2024-03-22T07:28:05;100466.04;;;-0.39;30.20
80693;BME280;70055;39.436;-77.514;2024-03-22T07:30:33;100460.00;;;-0.07;30.36
80693;BME280;70055;39.436;-77.514;2024-03-22T07:33:02;100458.10;;;-0.27;29.33
80693;BME280;70055;39.436;-77.514;2024-03-22T07:35:30;100460.58;;;-0.25;30.71
80693;BME280;70055;39.436;-77.514;2024-03-22T07:37:57;100463.46;;;-1.28;32.84
80693;BME280;70055;39.436;-77.514;2024-03-22T07:40:26;100456.26;;;-0.57;30.87
80693;BME280;70055;39.436;-77.514;2024-03-22T07:42:54;100457.74;;;-0.29;29.91
80693;BME280;70055;39.436;-77.514;2024-03-22T07:45:22;100466.77;;;-1.31;34.04
80693;BME280;70055;39.436;-77.514;2024-03-22T07:47:50;100458.18;;;-0.39;31.14
80693;BME280;70055;39.436;-77.514;2024-03-22T07:50:17;100458.06;;;-0.15;29.85
80693;BME280;70055;39.436;-77.514;2024-03-22T07:52:45;100464.32;;;-0.97;33.30
80693;BME280;70055;39.436;-77.514;2024-03-22T07:55:14;100461.93;;;-0.44;30.36
80693;BME280;70055;39.436;-77.514;2024-03-22T07:57:42;100462.18;;;-0.36;30.49
80693;BME280;70055;39.436;-77.514;2024-03-22T08:00:10;100463.18;;;-0.50;30.10
80693;BME280;70055;39.436;-77.514;2024-03-22T08:02:39;100463.08;;;-0.31;30.75
80693;BME280;70055;39.436;-77.514;2024-03-22T08:05:07;100468.15;;;-0.09;29.08
80693;BME280;70055;39.436;-77.514;2024-03-22T08:07:35;100469.62;;;0.10;29.25
80693;BME280;70055;39.436;-77.514;2024-03-22T08:10:04;100476.13;;;0.06;30.33
80693;BME280;70055;39.436;-77.514;2024-03-22T08:12:32;100473.63;;;-0.24;30.54
80693;BME280;70055;39.436;-77.514;2024-03-22T08:15:01;100470.70;;;-0.11;28.35
80693;BME280;70055;39.436;-77.514;2024-03-22T08:17:28;100469.74;;;0.10;29.40
80693;BME280;70055;39.436;-77.514;2024-03-22T08:19:56;100478.80;;;-1.60;32.40
80693;BME280;70055;39.436;-77.514;2024-03-22T08:22:24;100477.28;;;-0.70;30.64
80693;BME280;70055;39.436;-77.514;2024-03-22T08:24:52;100474.27;;;-0.29;29.36
80693;BME280;70055;39.436;-77.514;2024-03-22T08:27:20;100482.91;;;-0.69;30.73
80693;BME280;70055;39.436;-77.514;2024-03-22T08:29:48;100486.85;;;-0.57;30.48
80693;BME280;70055;39.436;-77.514;2024-03-22T08:32:15;100493.13;;;-1.12;32.32
80693;BME280;70055;39.436;-77.514;2024-03-22T08:34:44;100491.17;;;-0.48;31.22
80693;BME280;70055;39.436;-77.514;2024-03-22T08:37:12;100492.39;;;-0.63;29.84
80693;BME280;70055;39.436;-77.514;2024-03-22T08:39:40;100490.18;;;-0.39;29.52
80693;BME280;70055;39.436;-77.514;2024-03-22T08:42:09;100491.11;;;-0.89;31.41
80693;BME280;70055;39.436;-77.514;2024-03-22T08:44:37;100491.73;;;-2.02;30.71
80693;BME280;70055;39.436;-77.514;2024-03-22T08:47:05;100493.47;;;-2.01;33.14
80693;BME280;70055;39.436;-77.514;2024-03-22T08:49:33;100496.35;;;-3.01;33.57
80693;BME280;70055;39.436;-77.514;2024-03-22T08:52:00;100497.46;;;-2.70;32.59
80693;BME280;70055;39.436;-77.514;2024-03-22T08:54:28;100494.83;;;-2.39;30.92
80693;BME280;70055;39.436;-77.514;2024-03-22T08:56:56;100493.22;;;-1.42;29.09
80693;BME280;70055;39.436;-77.514;2024-03-22T08:59:24;100483.96;;;-1.56;30.14
80693;BME280;70055;39.436;-77.514;2024-03-22T09:01:53;100478.25;;;-2.29;31.27
80693;BME280;70055;39.436;-77.514;2024-03-22T09:04:20;100472.70;;;-2.87;31.10
80693;BME280;70055;39.436;-77.514;2024-03-22T09:06:49;100477.24;;;-2.31;31.53
80693;BME280;70055;39.436;-77.514;2024-03-22T09:09:17;100474.97;;;-2.39;31.73
80693;BME280;70055;39.436;-77.514;2024-03-22T09:11:45;100477.44;;;-2.72;31.60
80693;BME280;70055;39.436;-77.514;2024-03-22T09:14:13;100473.09;;;-3.07;31.03
80693;BME280;70055;39.436;-77.514;2024-03-22T09:16:41;100478.85;;;-3.11;32.69
80693;BME280;70055;39.436;-77.514;2024-03-22T09:19:09;100477.16;;;-1.79;31.42
80693;BME280;70055;39.436;-77.514;2024-03-22T09:21:37;100482.40;;;-2.95;31.97
80693;BME280;70055;39.436;-77.514;2024-03-22T09:24:05;100487.84;;;-3.57;33.72
80693;BME280;70055;39.436;-77.514;2024-03-22T09:26:33;100492.72;;;-2.83;31.83
80693;BME280;70055;39.436;-77.514;2024-03-22T09:29:01;100495.79;;;-3.32;32.92
80693;BME280;70055;39.436;-77.514;2024-03-22T09:31:29;100499.56;;;-2.95;31.78
80693;BME280;70055;39.436;-77.514;2024-03-22T09:33:57;100497.86;;;-3.20;32.39
80693;BME280;70055;39.436;-77.514;2024-03-22T09:36:25;100506.77;;;-3.88;34.10
80693;BME280;70055;39.436;-77.514;2024-03-22T09:38:54;100508.38;;;-3.61;32.35
80693;BME280;70055;39.436;-77.514;2024-03-22T09:41:24;100510.61;;;-2.68;31.28
80693;BME280;70055;39.436;-77.514;2024-03-22T09:43:52;100507.97;;;-3.28;31.80
80693;BME280;70055;39.436;-77.514;2024-03-22T09:46:22;100510.11;;;-3.18;32.83
80693;BME280;70055;39.436;-77.514;2024-03-22T09:48:51;100498.61;;;-2.56;31.88
80693;BME280;70055;39.436;-77.514;2024-03-22T09:51:21;100497.43;;;-2.32;31.72
80693;BME280;70055;39.436;-77.514;2024-03-22T09:53:49;100499.84;;;-2.81;32.17
80693;BME280;70055;39.436;-77.514;2024-03-22T09:56:21;100502.93;;;-3.28;31.96
80693;BME280;70055;39.436;-77.514;2024-03-22T09:58:51;100501.35;;;-2.70;31.49
80693;BME280;70055;39.436;-77.514;2024-03-22T10:01:20;100503.87;;;-3.34;33.31
80693;BME280;70055;39.436;-77.514;2024-03-22T10:03:48;100502.65;;;-3.79;34.62
80693;BME280;70055;39.436;-77.514;2024-03-22T10:06:16;100508.44;;;-3.89;34.10
80693;BME280;70055;39.436;-77.514;2024-03-22T10:08:44;100508.69;;;-3.68;33.03
80693;BME280;70055;39.436;-77.514;2024-03-22T10:11:11;100513.34;;;-3.97;33.71
80693;BME280;70055;39.436;-77.514;2024-03-22T10:13:39;100516.33;;;-2.95;32.06
80693;BME280;70055;39.436;-77.514;2024-03-22T10:16:07;100526.65;;;-4.01;32.73
80693;BME280;70055;39.436;-77.514;2024-03-22T10:18:36;100524.27;;;-3.76;33.10
80693;BME280;70055;39.436;-77.514;2024-03-22T10:21:04;100528.27;;;-4.04;33.51
80693;BME280;70055;39.436;-77.514;2024-03-22T10:23:33;100525.97;;;-3.56;32.80
80693;BME280;70055;39.436;-77.514;2024-03-22T10:26:01;100538.41;;;-4.00;33.94
80693;BME280;70055;39.436;-77.514;2024-03-22T10:28:29;100531.73;;;-3.50;34.28
80693;BME280;70055;39.436;-77.514;2024-03-22T10:30:57;100531.31;;;-3.70;33.33
80693;BME280;70055;39.436;-77.514;2024-03-22T10:33:27;100530.98;;;-4.18;34.42
80693;BME280;70055;39.436;-77.514;2024-03-22T10:35:56;100530.16;;;-3.08;32.68
80693;BME280;70055;39.436;-77.514;2024-03-22T10:38:25;100535.04;;;-3.86;33.45
80693;BME280;70055;39.436;-77.514;2024-03-22T10:40:54;100537.96;;;-3.48;33.90
80693;BME280;70055;39.436;-77.514;2024-03-22T10:43:23;100537.89;;;-3.31;33.45
80693;BME280;70055;39.436;-77.514;2024-03-22T10:45:52;100540.26;;;-2.87;32.33
80693;BME280;70055;39.436;-77.514;2024-03-22T10:48:25;100547.70;;;-4.65;34.95
80693;BME280;70055;39.436;-77.514;2024-03-22T10:51:00;100554.54;;;-4.18;34.08
80693;BME280;70055;39.436;-77.514;2024-03-22T10:53:31;100552.66;;;-3.50;33.55
80693;BME280;70055;39.436;-77.514;2024-03-22T10:56:01;100556.29;;;-3.77;33.97
80693;BME280;70055;39.436;-77.514;2024-03-22T10:58:31;100553.07;;;-3.37;33.52
80693;BME280;70055;39.436;-77.514;2024-03-22T11:00:59;100558.22;;;-3.63;33.42
80693;BME280;70055;39.436;-77.514;2024-03-22T11:03:27;100563.28;;;-3.57;34.10
80693;BME280;70055;39.436;-77.514;2024-03-22T11:05:56;100563.83;;;-3.58;32.64
80693;BME280;70055;39.436;-77.514;2024-03-22T11:08:25;100566.25;;;-4.07;34.20
80693;BME280;70055;39.436;-77.514;2024-03-22T11:10:53;100570.25;;;-3.94;33.92
80693;BME280;70055;39.436;-77.514;2024-03-22T11:13:21;100570.73;;;-3.83;33.90
80693;BME280;70055;39.436;-77.514;2024-03-22T11:15:50;100565.31;;;-4.24;34.96
80693;BME280;70055;39.436;-77.514;2024-03-22T11:18:18;100568.91;;;-4.16;35.17
80693;BME280;70055;39.436;-77.514;2024-03-22T11:20:46;100564.04;;;-4.01;34.81
80693;BME280;70055;39.436;-77.514;2024-03-22T11:23:14;100566.13;;;-4.33;36.04
80693;BME280;70055;39.436;-77.514;2024-03-22T11:25:41;100564.21;;;-4.21;34.44
80693;BME280;70055;39.436;-77.514;2024-03-22T11:28:10;100562.31;;;-4.04;35.09
80693;BME280;70055;39.436;-77.514;2024-03-22T11:30:38;100563.39;;;-3.66;34.66
80693;BME280;70055;39.436;-77.514;2024-03-22T11:33:06;100568.10;;;-4.11;34.72
80693;BME280;70055;39.436;-77.514;2024-03-22T11:35:34;100563.09;;;-3.95;34.83
80693;BME280;70055;39.436;-77.514;2024-03-22T11:38:02;100566.01;;;-4.57;35.03
80693;BME280;70055;39.436;-77.514;2024-03-22T11:40:32;100569.29;;;-4.33;34.42
80693;BME280;70055;39.436;-77.514;2024-03-22T11:43:01;100569.42;;;-4.23;35.20
80693;BME280;70055;39.436;-77.514;2024-03-22T11:45:31;100570.49;;;-3.66;33.86
80693;BME280;70055;39.436;-77.514;2024-03-22T11:48:02;100564.71;;;-3.94;35.07
80693;BME280;70055;39.436;-77.514;2024-03-22T11:50:32;100564.94;;;-4.22;35.19
80693;BME280;70055;39.436;-77.514;2024-03-22T11:53:01;100571.79;;;-4.01;34.11
80693;BME280;70055;39.436;-77.514;2024-03-22T11:55:29;100574.35;;;-4.12;34.29
80693;BME280;70055;39.436;-77.514;2024-03-22T11:57:58;100582.72;;;-3.51;34.34
80693;BME280;70055;39.436;-77.514;2024-03-22T12:00:27;100580.13;;;-3.76;34.40
80693;BME280;70055;39.436;-77.514;2024-03-22T12:02:56;100581.22;;;-3.88;35.11
80693;BME280;70055;39.436;-77.514;2024-03-22T12:05:24;100586.54;;;-3.78;34.50
80693;BME280;70055;39.436;-77.514;2024-03-22T12:07:52;100582.84;;;-3.42;34.55
80693;BME280;70055;39.436;-77.514;2024-03-22T12:10:20;100585.50;;;-3.55;34.75
80693;BME280;70055;39.436;-77.514;2024-03-22T12:12:48;100588.75;;;-3.98;34.50
80693;BME280;70055;39.436;-77.514;2024-03-22T12:15:15;100583.53;;;-3.11;33.67
80693;BME280;70055;39.436;-77.514;2024-03-22T12:17:44;100583.49;;;-3.76;35.83
80693;BME280;70055;39.436;-77.514;2024-03-22T12:20:12;100581.37;;;-3.75;35.69
80693;BME280;70055;39.436;-77.514;2024-03-22T12:22:40;100579.29;;;-3.23;34.95
80693;BME280;70055;39.436;-77.514;2024-03-22T12:25:09;100575.93;;;-3.60;34.75
80693;BME280;70055;39.436;-77.514;2024-03-22T12:27:37;100572.74;;;-3.35;34.17
80693;BME280;70055;39.436;-77.514;2024-03-22T12:30:06;100564.94;;;-3.35;34.20
80693;BME280;70055;39.436;-77.514;2024-03-22T12:32:34;100564.80;;;-3.21;34.26
80693;BME280;70055;39.436;-77.514;2024-03-22T12:35:03;100563.07;;;-3.57;35.48
80693;BME280;70055;39.436;-77.514;2024-03-22T12:37:31;100566.41;;;-3.63;36.42
80693;BME280;70055;39.436;-77.514;2024-03-22T12:40:00;100566.02;;;-3.44;35.14